createdAt,value
2018-04-09T00:02:19.559Z,20.67
2018-04-09T00:04:48.002Z,19.50
2018-04-09T00:07:16.415Z,18.90
2018-04-09T00:09:44.490Z,19.87
2018-04-09T00:12:12.539Z,20.10
2018-04-09T00:14:40.735Z,18.40
2018-04-09T00:17:09.111Z,19.00
2018-04-09T00:19:37.041Z,20.00
2018-04-09T00:22:05.561Z,19.73
2018-04-09T00:24:33.935Z,19.03
2018-04-09T00:27:02.310Z,19.60
2018-04-09T00:29:31.197Z,21.10
2018-04-09T00:31:59.481Z,18.20
2018-04-09T00:34:28.572Z,19.80
2018-04-09T00:36:56.747Z,21.87
2018-04-09T00:39:25.241Z,19.73
2018-04-09T00:41:53.195Z,20.20
2018-04-09T00:44:21.257Z,21.10
2018-04-09T00:46:49.334Z,22.27
2018-04-09T00:49:17.616Z,24.27
2018-04-09T00:51:47.586Z,22.70
2018-04-09T00:54:15.601Z,21.90
2018-04-09T00:56:43.565Z,23.27
2018-04-09T00:59:11.706Z,22.30
2018-04-09T01:01:39.915Z,25.13
2018-04-09T01:04:07.970Z,24.37
2018-04-09T01:06:36.146Z,24.03
2018-04-09T01:09:04.645Z,24.33
2018-04-09T01:11:33.117Z,25.93
2018-04-09T01:14:01.145Z,24.10
2018-04-09T01:16:29.460Z,26.07
2018-04-09T01:18:58.356Z,26.20
2018-04-09T01:21:26.730Z,27.50
2018-04-09T01:23:54.594Z,28.70
2018-04-09T01:26:22.466Z,28.60
2018-04-09T01:28:52.070Z,28.40
2018-04-09T01:31:20.241Z,24.50
2018-04-09T01:33:48.543Z,31.20
2018-04-09T01:36:17.206Z,26.40
2018-04-09T01:38:45.441Z,27.67
2018-04-09T01:41:13.353Z,28.40
2018-04-09T01:43:41.417Z,25.80
2018-04-09T01:46:09.860Z,26.20
2018-04-09T01:48:38.046Z,26.83
2018-04-09T01:51:06.140Z,27.87
2018-04-09T01:53:34.515Z,27.73
2018-04-09T01:56:02.392Z,26.87
2018-04-09T01:58:30.695Z,27.77
2018-04-09T02:00:59.934Z,33.73
2018-04-09T02:03:28.136Z,31.80
2018-04-09T02:05:56.371Z,32.73
2018-04-09T02:08:24.693Z,33.57
2018-04-09T02:10:53.065Z,33.17
2018-04-09T02:13:21.442Z,34.63
2018-04-09T02:15:50.022Z,33.90
2018-04-09T02:18:17.975Z,30.97
2018-04-09T02:20:46.066Z,33.80
2018-04-09T02:23:14.729Z,36.30
2018-04-09T02:25:43.000Z,36.73
2018-04-09T02:28:11.200Z,36.50
2018-04-09T02:30:39.073Z,38.80
2018-04-09T02:33:07.629Z,37.23
2018-04-09T02:35:36.033Z,37.47
2018-04-09T02:38:05.801Z,36.67
2018-04-09T02:40:33.706Z,37.20
2018-04-09T02:43:01.982Z,39.20
2018-04-09T02:45:29.946Z,35.43
2018-04-09T02:47:58.221Z,38.37
2018-04-09T02:50:26.155Z,38.27
2018-04-09T02:52:54.265Z,37.23
2018-04-09T02:55:22.437Z,36.70
2018-04-09T02:57:50.796Z,37.93
2018-04-09T03:00:18.997Z,38.63
2018-04-09T03:02:47.266Z,37.77
2018-04-09T03:05:15.563Z,40.30
2018-04-09T03:07:44.645Z,38.33
2018-04-09T03:10:12.703Z,40.80
2018-04-09T03:12:40.777Z,37.03
2018-04-09T03:15:08.856Z,39.23
2018-04-09T03:17:37.242Z,39.63
2018-04-09T03:20:05.807Z,38.90
2018-04-09T03:22:35.828Z,39.67
2018-04-09T03:25:04.525Z,39.63
2018-04-09T03:27:32.590Z,38.90
2018-04-09T03:30:01.066Z,39.47
2018-04-09T03:32:29.304Z,37.77
2018-04-09T03:34:57.616Z,37.40
2018-04-09T03:37:25.667Z,40.00
2018-04-09T03:39:53.551Z,38.10
2018-04-09T03:42:21.868Z,37.93
2018-04-09T03:44:49.975Z,41.07
2018-04-09T03:47:18.230Z,38.37
2018-04-09T03:49:46.453Z,36.73
2018-04-09T03:52:14.991Z,42.07
2018-04-09T03:54:43.406Z,39.27
2018-04-09T03:57:11.581Z,39.63
2018-04-09T03:59:39.728Z,40.13
2018-04-09T04:02:08.245Z,38.30
2018-04-09T04:04:36.642Z,44.47
2018-04-09T04:07:05.583Z,44.17
2018-04-09T04:09:33.880Z,40.97
2018-04-09T04:12:02.041Z,41.30
2018-04-09T04:14:30.362Z,41.17
2018-04-09T04:17:10.794Z,42.27
2018-04-09T04:19:57.212Z,41.67
2018-04-09T04:22:36.035Z,42.00
2018-04-09T04:25:11.451Z,40.60
2018-04-09T04:27:40.454Z,38.87
2018-04-09T04:30:09.169Z,39.80
2018-04-09T04:32:38.562Z,42.07
2018-04-09T04:35:08.069Z,42.03
2018-04-09T04:37:36.834Z,42.40
2018-04-09T04:40:04.880Z,39.20
2018-04-09T04:42:32.770Z,41.90
2018-04-09T04:45:00.738Z,44.63
2018-04-09T04:47:32.404Z,40.97
2018-04-09T04:50:00.568Z,45.30
2018-04-09T04:52:29.470Z,42.77
2018-04-09T04:54:57.527Z,43.97
2018-04-09T04:57:25.798Z,41.67
2018-04-09T04:59:53.979Z,46.47
2018-04-09T05:02:22.008Z,43.10
2018-04-09T05:04:50.482Z,45.20
2018-04-09T05:07:18.698Z,45.77
2018-04-09T05:09:47.083Z,45.70
2018-04-09T05:12:15.870Z,47.33
2018-04-09T05:14:44.139Z,43.90
2018-04-09T05:17:12.118Z,41.20
2018-04-09T05:19:40.078Z,44.27
2018-04-09T05:22:08.402Z,45.97
2018-04-09T05:24:36.808Z,44.40
2018-04-09T05:27:04.911Z,42.93
2018-04-09T05:29:32.875Z,43.07
2018-04-09T05:32:01.181Z,44.17
2018-04-09T05:34:30.038Z,47.80
2018-04-09T05:36:58.202Z,48.13
2018-04-09T05:39:26.384Z,48.53
2018-04-09T05:41:54.353Z,46.63
2018-04-09T05:44:22.531Z,49.57
2018-04-09T05:46:50.600Z,46.47
2018-04-09T05:49:18.671Z,47.00
2018-04-09T05:51:46.535Z,47.07
2018-04-09T05:54:14.511Z,46.97
2018-04-09T05:56:42.785Z,46.27
2018-04-09T05:59:10.838Z,47.93
2018-04-09T06:01:39.171Z,48.10
2018-04-09T06:04:07.305Z,47.40
2018-04-09T06:06:35.460Z,48.47
2018-04-09T06:09:03.847Z,48.37
2018-04-09T06:11:31.924Z,49.30
2018-04-09T06:13:59.790Z,48.37
2018-04-09T06:16:28.174Z,50.33
2018-04-09T06:18:56.628Z,47.63
2018-04-09T06:21:24.979Z,47.17
2018-04-09T06:23:53.107Z,47.90
2018-04-09T06:26:21.439Z,46.57
2018-04-09T06:28:49.543Z,49.10
2018-04-09T06:31:17.822Z,47.00
2018-04-09T06:33:45.976Z,47.63
2018-04-09T06:36:14.076Z,47.93
2018-04-09T06:38:42.437Z,47.30
2018-04-09T06:41:10.698Z,46.30
2018-04-09T06:43:39.201Z,47.00
2018-04-09T06:46:07.570Z,46.20
2018-04-09T06:48:35.960Z,46.60
2018-04-09T06:51:04.333Z,45.40
2018-04-09T06:53:32.527Z,47.23
2018-04-09T06:56:01.538Z,47.27
2018-04-09T06:58:30.798Z,45.50
2018-04-09T07:00:59.076Z,46.80
2018-04-09T07:03:27.045Z,45.60
2018-04-09T07:05:55.015Z,46.00
2018-04-09T07:08:23.638Z,43.13
2018-04-09T07:10:52.593Z,42.20
2018-04-09T07:13:20.762Z,43.60
2018-04-09T07:15:49.180Z,41.97
2018-04-09T07:18:17.705Z,42.30
2018-04-09T07:20:46.200Z,41.63
2018-04-09T07:23:14.378Z,41.67
2018-04-09T07:25:42.934Z,44.33
2018-04-09T07:28:11.336Z,42.00
2018-04-09T07:30:39.513Z,41.07
2018-04-09T07:33:08.106Z,41.50
2018-04-09T07:35:36.518Z,41.57
2018-04-09T07:38:04.952Z,42.23
2018-04-09T07:40:33.601Z,38.70
2018-04-09T07:43:01.915Z,37.00
2018-04-09T07:45:29.973Z,40.07
2018-04-09T07:47:58.264Z,38.77
2018-04-09T07:50:26.639Z,37.70
2018-04-09T07:52:55.173Z,38.47
2018-04-09T07:55:23.574Z,38.87
2018-04-09T07:57:51.567Z,38.43
2018-04-09T08:00:19.641Z,39.10
2018-04-09T08:02:47.693Z,37.80
2018-04-09T08:05:16.336Z,38.80
2018-04-09T08:07:44.939Z,37.13
2018-04-09T08:10:13.513Z,38.30
2018-04-09T08:12:41.592Z,37.07
2018-04-09T08:15:09.802Z,37.37
2018-04-09T08:17:37.878Z,36.27
2018-04-09T08:20:07.873Z,38.37
2018-04-09T08:22:35.961Z,37.50
2018-04-09T08:25:04.703Z,33.27
2018-04-09T08:27:32.821Z,35.20
2018-04-09T08:30:01.203Z,33.73
2018-04-09T08:32:29.371Z,34.20
2018-04-09T08:34:57.855Z,34.50
2018-04-09T08:37:26.024Z,32.83
2018-04-09T08:39:54.002Z,33.63
2018-04-09T08:42:22.478Z,31.23
2018-04-09T08:44:50.551Z,31.07
2018-04-09T08:47:18.887Z,33.23
2018-04-09T08:49:46.793Z,31.00
2018-04-09T08:52:15.276Z,30.67
2018-04-09T08:54:43.450Z,30.33
2018-04-09T08:57:12.436Z,29.00
2018-04-09T08:59:41.023Z,27.77
2018-04-09T09:02:09.193Z,26.17
2018-04-09T09:04:37.226Z,26.00
2018-04-09T09:07:05.344Z,27.50
2018-04-09T09:09:33.759Z,25.80
2018-04-09T09:12:01.789Z,26.77
2018-04-09T09:14:30.171Z,27.50
2018-04-09T09:16:58.234Z,27.33
2018-04-09T09:19:26.282Z,29.52
2018-04-09T09:21:55.098Z,26.60
2018-04-09T09:24:23.272Z,28.23
2018-04-09T09:26:51.234Z,27.25
2018-04-09T09:29:19.493Z,28.40
2018-04-09T09:31:48.206Z,25.52
2018-04-09T09:34:16.796Z,25.25
2018-04-09T09:36:46.016Z,24.80
2018-04-09T09:39:14.461Z,23.77
2018-04-09T09:41:42.504Z,24.05
2018-04-09T09:44:10.497Z,23.17
2018-04-09T09:46:39.360Z,23.33
2018-04-09T09:49:07.662Z,22.85
2018-04-09T09:51:36.040Z,22.87
2018-04-09T09:54:04.619Z,23.33
2018-04-09T09:56:32.815Z,22.98
2018-04-09T09:59:01.993Z,22.75
2018-04-09T10:01:45.837Z,21.45
2018-04-09T10:04:13.869Z,22.48
2018-04-09T10:06:41.978Z,23.00
2018-04-09T10:09:10.253Z,20.75
2018-04-09T10:11:38.574Z,22.98
2018-04-09T10:14:07.018Z,22.58
2018-04-09T10:16:35.489Z,21.47
2018-04-09T10:19:03.572Z,20.33
2018-04-09T10:21:33.482Z,19.70
2018-04-09T10:24:01.442Z,23.83
2018-04-09T10:26:30.533Z,21.40
2018-04-09T10:28:59.046Z,20.90
2018-04-09T10:31:27.823Z,20.37
2018-04-09T10:33:55.990Z,20.67
2018-04-09T10:36:24.897Z,17.70
2018-04-09T10:38:53.631Z,18.87
2018-04-09T10:41:21.729Z,21.25
2018-04-09T10:43:50.712Z,20.62
2018-04-09T10:46:18.689Z,18.80
2018-04-09T10:48:47.680Z,18.25
2018-04-09T10:51:16.279Z,18.60
2018-04-09T10:53:45.620Z,19.02
2018-04-09T10:56:14.370Z,18.15
2018-04-09T10:58:43.315Z,17.10
2018-04-09T11:01:11.831Z,18.52
2018-04-09T11:03:40.873Z,19.15
2018-04-09T11:06:09.427Z,18.27
2018-04-09T11:08:38.510Z,17.60
2018-04-09T11:11:06.950Z,17.08
2018-04-09T11:13:35.151Z,15.70
2018-04-09T11:16:03.530Z,18.55
2018-04-09T11:18:31.600Z,32.50
2018-04-09T11:20:59.574Z,17.55
2018-04-09T11:23:28.156Z,19.40
2018-04-09T11:25:56.651Z,23.45
2018-04-09T11:28:25.244Z,17.85
2018-04-09T11:30:55.337Z,18.75
2018-04-09T11:33:23.652Z,18.80
2018-04-09T11:35:52.564Z,19.77
2018-04-09T11:38:20.804Z,23.40
2018-04-09T11:40:50.206Z,19.15
2018-04-09T11:43:19.509Z,19.65
2018-04-09T11:45:48.384Z,22.00
2018-04-09T11:48:16.463Z,18.85
2018-04-09T11:50:45.784Z,18.48
2018-04-09T11:53:14.752Z,18.77
2018-04-09T11:55:44.370Z,17.77
2018-04-09T11:58:13.440Z,19.35
2018-04-09T12:00:42.284Z,19.55
2018-04-09T12:03:10.951Z,17.12
2018-04-09T12:05:39.908Z,19.10
2018-04-09T12:08:08.264Z,18.55
2018-04-09T12:10:37.067Z,19.75
2018-04-09T12:13:05.404Z,17.20
2018-04-09T12:15:33.939Z,18.45
2018-04-09T12:18:02.004Z,18.70
2018-04-09T12:20:30.431Z,18.60
2018-04-09T12:22:58.565Z,17.67
2018-04-09T12:25:28.354Z,18.62
2018-04-09T12:27:56.242Z,16.77
2018-04-09T12:30:24.981Z,18.40
2018-04-09T12:32:54.548Z,17.75
2018-04-09T12:35:24.050Z,17.50
2018-04-09T12:37:52.773Z,16.85
2018-04-09T12:40:20.785Z,17.27
2018-04-09T12:42:49.475Z,17.83
2018-04-09T12:45:17.881Z,16.92
2018-04-09T12:47:48.415Z,18.73
2018-04-09T12:50:17.951Z,17.33
2018-04-09T12:52:46.328Z,17.55
2018-04-09T12:55:14.959Z,17.87
2018-04-09T12:57:43.502Z,17.60
2018-04-09T13:00:11.823Z,17.10
2018-04-09T13:02:41.149Z,18.02
2018-04-09T13:05:10.272Z,18.08
2018-04-09T13:07:38.982Z,19.20
2018-04-09T13:10:07.600Z,19.02
2018-04-09T13:12:36.763Z,18.73
2018-04-09T13:15:04.729Z,18.98
2018-04-09T13:17:33.106Z,18.55
2018-04-09T13:20:01.617Z,19.53
2018-04-09T13:22:31.049Z,19.62
2018-04-09T13:24:59.372Z,20.05
2018-04-09T13:27:27.669Z,20.42
2018-04-09T13:29:56.742Z,21.50
2018-04-09T13:32:28.138Z,18.73
2018-04-09T13:34:57.283Z,19.67
2018-04-09T13:37:26.708Z,18.27
2018-04-09T13:39:54.827Z,17.57
2018-04-09T13:42:23.608Z,17.35
2018-04-09T13:44:52.953Z,17.12
2018-04-09T13:47:22.360Z,16.70
2018-04-09T13:49:50.640Z,16.70
2018-04-09T13:52:19.341Z,15.98
2018-04-09T13:54:48.531Z,16.23
2018-04-09T13:57:16.994Z,15.63
2018-04-09T13:59:45.267Z,15.25
2018-04-09T14:02:14.141Z,15.70
2018-04-09T14:04:42.804Z,16.63
2018-04-09T14:07:11.460Z,16.27
2018-04-09T14:09:41.067Z,15.20
2018-04-09T14:12:10.131Z,16.50
2018-04-09T14:14:38.841Z,16.05
2018-04-09T14:17:08.537Z,16.58
2018-04-09T14:19:36.515Z,15.57
2018-04-09T14:22:06.011Z,15.55
2018-04-09T14:24:34.362Z,17.23
2018-04-09T14:27:03.292Z,16.35
2018-04-09T14:29:31.238Z,18.27
2018-04-09T14:31:59.841Z,16.77
2018-04-09T14:34:28.315Z,16.20
2018-04-09T14:36:57.321Z,14.77
2018-04-09T14:39:26.520Z,15.27
2018-04-09T14:41:56.043Z,15.70
2018-04-09T14:44:24.399Z,16.50
2018-04-09T14:46:53.472Z,16.93
2018-04-09T14:49:22.172Z,17.10
2018-04-09T14:51:50.764Z,17.20
2018-04-09T14:54:19.733Z,16.40
2018-04-09T14:56:47.901Z,15.43
2018-04-09T14:59:16.239Z,15.07
2018-04-09T15:01:45.363Z,14.20
2018-04-09T15:04:13.888Z,16.70
2018-04-09T15:06:43.590Z,16.00
2018-04-09T15:09:11.680Z,15.60
2018-04-09T15:11:40.265Z,14.97
2018-04-09T15:14:08.631Z,15.20
2018-04-09T15:16:38.294Z,13.57
2018-04-09T15:19:06.149Z,15.43
2018-04-09T15:21:34.603Z,13.80
2018-04-09T15:24:03.613Z,14.63
2018-04-09T15:26:31.620Z,14.87
2018-04-09T15:29:00.332Z,15.90
2018-04-09T15:31:29.933Z,16.13
2018-04-09T15:33:59.079Z,14.67
2018-04-09T15:36:27.520Z,15.20
2018-04-09T15:38:56.283Z,16.10
2018-04-09T15:41:25.889Z,14.63
2018-04-09T15:43:54.061Z,15.50
2018-04-09T15:46:22.440Z,15.20
2018-04-09T15:48:50.301Z,15.03
2018-04-09T15:51:18.949Z,14.83
2018-04-09T15:53:47.360Z,13.73
2018-04-09T15:56:15.636Z,14.13
2018-04-09T15:58:44.018Z,14.30
2018-04-09T16:01:12.079Z,13.63
2018-04-09T16:03:40.318Z,15.80
2018-04-09T16:06:08.448Z,13.27
2018-04-09T16:08:37.148Z,14.77
2018-04-09T16:11:06.502Z,14.00
2018-04-09T16:13:35.145Z,13.50
2018-04-09T16:16:04.062Z,14.70
2018-04-09T16:18:32.292Z,15.30
2018-04-09T16:21:01.325Z,16.23
2018-04-09T16:23:29.895Z,15.90
2018-04-09T16:25:58.298Z,15.60
2018-04-09T16:28:26.827Z,14.83
2018-04-09T16:30:55.601Z,15.70
2018-04-09T16:33:25.139Z,14.60
2018-04-09T16:35:53.998Z,14.90
2018-04-09T16:38:22.280Z,13.90
2018-04-09T16:40:50.444Z,15.43
2018-04-09T16:43:19.053Z,14.50
2018-04-09T16:45:48.538Z,15.50
2018-04-09T16:48:16.563Z,14.83
2018-04-09T16:50:44.724Z,15.60
2018-04-09T16:53:12.954Z,16.83
2018-04-09T16:55:41.324Z,18.47
2018-04-09T16:58:09.477Z,24.27
2018-04-09T17:00:38.799Z,19.60
2018-04-09T17:03:07.384Z,18.90
2018-04-09T17:05:35.349Z,18.73
2018-04-09T17:08:03.843Z,19.00
2018-04-09T17:10:32.338Z,83.50
2018-04-09T17:13:01.449Z,45.57
2018-04-09T17:15:29.793Z,35.57
2018-04-09T17:17:57.956Z,25.87
2018-04-09T17:20:26.252Z,19.33
2018-04-09T17:22:55.695Z,20.20
2018-04-09T17:25:24.085Z,19.60
2018-04-09T17:27:52.406Z,23.60
2018-04-09T17:30:20.637Z,79.60
2018-04-09T17:32:48.865Z,95.13
2018-04-09T17:35:17.911Z,46.33
2018-04-09T17:37:46.316Z,35.43
2018-04-09T17:40:14.510Z,23.40
2018-04-09T17:42:43.690Z,22.20
2018-04-09T17:45:11.859Z,23.40
2018-04-09T17:47:40.035Z,24.00
2018-04-09T17:50:08.104Z,26.30
2018-04-09T17:52:36.284Z,22.70
2018-04-09T17:55:04.474Z,22.13
2018-04-09T17:57:33.656Z,23.83
2018-04-09T18:00:01.946Z,23.60
2018-04-09T18:02:30.915Z,21.10
2018-04-09T18:04:59.097Z,25.60
2018-04-09T18:07:27.162Z,25.67
2018-04-09T18:09:55.336Z,26.00
2018-04-09T18:12:23.685Z,40.40
2018-04-09T18:14:51.888Z,28.97
2018-04-09T18:17:19.955Z,26.60
2018-04-09T18:19:48.033Z,29.47
2018-04-09T18:22:15.994Z,28.90
2018-04-09T18:24:44.412Z,29.60
2018-04-09T18:27:13.168Z,36.20
2018-04-09T18:29:41.235Z,30.27
2018-04-09T18:32:09.326Z,30.60
2018-04-09T18:34:38.298Z,31.60
2018-04-09T18:37:06.477Z,45.50
2018-04-09T18:39:35.447Z,43.17
2018-04-09T18:42:03.742Z,46.20
2018-04-09T18:44:31.914Z,35.03
2018-04-09T18:47:00.708Z,40.30
2018-04-09T18:49:28.990Z,39.50
2018-04-09T18:51:57.120Z,38.00
2018-04-09T18:54:26.113Z,31.60
2018-04-09T18:56:54.527Z,31.80
2018-04-09T18:59:22.690Z,31.80
2018-04-09T19:01:51.124Z,33.97
2018-04-09T19:04:19.347Z,36.77
2018-04-09T19:06:48.867Z,30.40
2018-04-09T19:09:18.182Z,46.33
2018-04-09T19:11:47.047Z,38.93
2018-04-09T19:14:15.180Z,29.77
2018-04-09T19:16:43.395Z,36.27
2018-04-09T19:19:11.900Z,37.87
2018-04-09T19:21:40.967Z,34.47
2018-04-09T19:24:09.056Z,35.30
2018-04-09T19:26:38.241Z,32.50
2018-04-09T19:29:07.420Z,31.87
2018-04-09T19:31:36.712Z,33.63
2018-04-09T19:34:05.298Z,35.10
2018-04-09T19:39:45.342Z,33.93
2018-04-09T19:42:13.761Z,35.00
2018-04-09T19:44:41.743Z,45.20
2018-04-09T19:47:10.045Z,38.87
2018-04-09T19:49:38.996Z,36.67
2018-04-09T19:52:06.981Z,34.10
2018-04-09T19:54:35.246Z,34.50
2018-04-09T19:57:03.212Z,33.43
2018-04-09T19:59:31.387Z,33.27
2018-04-09T20:02:00.188Z,30.80
2018-04-09T20:04:29.454Z,31.77
2018-04-09T20:06:57.611Z,31.37
2018-04-09T20:09:26.617Z,32.40
2018-04-09T20:11:55.590Z,30.13
2018-04-09T20:14:23.867Z,29.23
2018-04-09T20:16:53.152Z,28.80
2018-04-09T20:19:21.595Z,33.23
2018-04-09T20:21:49.640Z,28.70
2018-04-09T20:24:18.030Z,31.57
2018-04-09T20:26:46.764Z,29.17
2018-04-09T20:29:14.995Z,30.87
2018-04-09T20:31:43.048Z,29.37
2018-04-09T20:34:11.451Z,28.70
2018-04-09T20:36:39.814Z,30.47
2018-04-09T20:39:07.897Z,29.20
2018-04-09T20:41:35.911Z,30.83
2018-04-09T20:44:05.583Z,30.47
2018-04-09T20:46:34.133Z,30.97
2018-04-09T20:49:03.191Z,30.57
2018-04-09T20:51:31.322Z,30.83
2018-04-09T20:53:59.429Z,29.33
2018-04-09T20:56:28.534Z,28.03
2018-04-09T20:58:56.868Z,29.43
2018-04-09T21:01:25.147Z,28.97
2018-04-09T21:03:53.533Z,31.27
2018-04-09T21:06:21.484Z,31.10
2018-04-09T21:08:49.670Z,28.73
2018-04-09T21:11:17.839Z,37.20
2018-04-09T21:13:46.335Z,34.07
2018-04-09T21:16:15.207Z,31.10
2018-04-09T21:18:43.381Z,32.03
2018-04-09T21:21:11.452Z,31.40
2018-04-09T21:23:39.618Z,29.87
2018-04-09T21:26:07.677Z,32.47
2018-04-09T21:28:36.383Z,32.27
2018-04-09T21:31:05.370Z,29.50
2018-04-09T21:33:33.513Z,32.50
2018-04-09T21:36:01.900Z,32.10
2018-04-09T21:38:30.262Z,29.53
2018-04-09T21:40:58.347Z,31.67
2018-04-09T21:43:26.753Z,31.87
2018-04-09T21:45:54.830Z,34.07
2018-04-09T21:48:23.199Z,31.27
2018-04-09T21:50:51.483Z,33.83
2018-04-09T21:53:19.443Z,32.00
2018-04-09T21:55:47.929Z,33.50
2018-04-09T21:58:16.300Z,33.27
2018-04-09T22:00:44.674Z,33.13
2018-04-09T22:03:13.177Z,34.07
2018-04-09T22:05:42.131Z,31.90
2018-04-09T22:08:10.234Z,33.73
2018-04-09T22:10:38.740Z,34.63
2018-04-09T22:13:08.083Z,33.93
2018-04-09T22:15:36.380Z,35.50
2018-04-09T22:18:04.777Z,33.60
2018-04-09T22:20:34.061Z,34.87
2018-04-09T22:23:02.372Z,36.03
2018-04-09T22:25:31.331Z,34.73
2018-04-09T22:27:59.542Z,34.83
2018-04-09T22:30:28.182Z,36.40
2018-04-09T22:32:56.485Z,37.30
2018-04-09T22:35:25.557Z,37.03
2018-04-09T22:37:53.594Z,36.67
2018-04-09T22:40:21.796Z,35.53
2018-04-09T22:42:50.652Z,37.90
2018-04-09T22:45:18.864Z,35.70
2018-04-09T22:47:48.110Z,36.60
2018-04-09T22:50:16.333Z,34.60
2018-04-09T22:52:44.916Z,35.90
2018-04-09T22:55:13.065Z,35.90
2018-04-09T22:57:41.167Z,36.50
2018-04-09T23:00:09.232Z,35.27
2018-04-09T23:02:37.530Z,34.77
2018-04-09T23:05:06.816Z,34.57
2018-04-09T23:07:35.797Z,37.23
2018-04-09T23:10:03.972Z,34.33
2018-04-09T23:12:33.386Z,37.20
2018-04-09T23:15:01.347Z,37.13
2018-04-09T23:17:31.025Z,35.90
2018-04-09T23:19:59.227Z,34.80
2018-04-09T23:22:36.108Z,33.40
2018-04-09T23:25:04.176Z,34.73
2018-04-09T23:27:32.147Z,34.97
2018-04-09T23:30:00.117Z,33.77
2018-04-09T23:32:28.179Z,35.00
2018-04-09T23:34:56.158Z,32.97
2018-04-09T23:37:24.250Z,33.37
2018-04-09T23:39:53.427Z,34.97
2018-04-09T23:42:21.572Z,34.63
2018-04-09T23:44:49.633Z,35.00
2018-04-09T23:47:17.977Z,35.57
2018-04-09T23:49:46.937Z,35.20
2018-04-09T23:52:15.072Z,35.17
2018-04-09T23:54:43.182Z,35.37
2018-04-09T23:57:11.452Z,34.23
2018-04-09T23:59:39.623Z,32.50
